createdAt,value
2019-03-28T00:02:10.573Z,7.70
2019-03-28T00:04:40.939Z,7.68
2019-03-28T00:07:13.136Z,7.62
2019-03-28T00:09:43.654Z,7.67
2019-03-28T00:12:13.024Z,7.74
2019-03-28T00:14:43.433Z,7.78
2019-03-28T00:17:15.705Z,7.78
2019-03-28T00:19:45.066Z,7.77
2019-03-28T00:22:18.295Z,7.75
2019-03-28T00:25:02.447Z,7.70
2019-03-28T00:27:32.900Z,7.69
2019-03-28T00:30:03.273Z,7.67
2019-03-28T00:32:35.957Z,7.68
2019-03-28T00:35:06.956Z,7.64
2019-03-28T00:37:36.430Z,7.64
2019-03-28T00:40:10.556Z,7.58
2019-03-28T00:42:40.936Z,7.38
2019-03-28T00:45:11.796Z,7.35
2019-03-28T00:47:41.189Z,7.41
2019-03-28T00:50:12.211Z,7.43
2019-03-28T00:52:42.794Z,7.50
2019-03-28T00:55:13.208Z,7.54
2019-03-28T00:57:42.604Z,7.52
2019-03-28T01:00:14.290Z,7.49
2019-03-28T01:02:46.108Z,7.49
2019-03-28T01:05:17.136Z,7.53
2019-03-28T01:07:48.993Z,7.53
2019-03-28T01:10:19.435Z,7.49
2019-03-28T01:12:51.887Z,7.47
2019-03-28T01:15:22.298Z,7.39
2019-03-28T01:17:52.720Z,7.37
2019-03-28T01:20:22.172Z,7.45
2019-03-28T01:22:51.569Z,7.47
2019-03-28T01:25:20.996Z,7.43
2019-03-28T01:27:51.340Z,7.44
2019-03-28T01:30:20.978Z,7.50
2019-03-28T01:32:51.370Z,7.38
2019-03-28T01:35:21.891Z,7.40
2019-03-28T01:37:52.721Z,7.44
2019-03-28T01:40:24.454Z,7.48
2019-03-28T01:42:56.855Z,7.46
2019-03-28T01:45:26.282Z,7.50
2019-03-28T01:47:56.641Z,7.42
2019-03-28T01:50:27.032Z,7.45
2019-03-28T01:52:57.376Z,7.42
2019-03-28T01:55:26.701Z,7.50
2019-03-28T01:57:57.736Z,7.54
2019-03-28T02:00:29.828Z,7.51
2019-03-28T02:03:03.552Z,7.53
2019-03-28T02:05:34.036Z,7.49
2019-03-28T02:08:03.465Z,7.54
2019-03-28T02:10:32.892Z,7.48
2019-03-28T02:13:05.169Z,7.41
2019-03-28T02:15:34.545Z,7.41
2019-03-28T02:18:03.937Z,7.33
2019-03-28T02:20:34.402Z,7.41
2019-03-28T02:23:04.818Z,7.31
2019-03-28T02:25:35.213Z,7.35
2019-03-28T02:28:05.608Z,7.36
2019-03-28T02:30:37.964Z,7.36
2019-03-28T02:33:08.208Z,7.34
2019-03-28T02:35:38.544Z,7.32
2019-03-28T02:38:09.485Z,7.37
2019-03-28T02:40:39.047Z,7.31
2019-03-28T02:43:08.404Z,7.26
2019-03-28T02:45:37.879Z,7.34
2019-03-28T02:48:08.237Z,7.32
2019-03-28T02:50:38.636Z,7.35
2019-03-28T02:53:09.176Z,7.40
2019-03-28T02:55:38.519Z,7.40
2019-03-28T02:58:07.926Z,7.43
2019-03-28T03:00:37.388Z,7.41
2019-03-28T03:03:07.898Z,7.33
2019-03-28T03:05:37.420Z,7.30
2019-03-28T03:08:08.114Z,7.22
2019-03-28T03:10:38.762Z,7.22
2019-03-28T03:13:09.329Z,7.21
2019-03-28T03:15:38.746Z,7.25
2019-03-28T03:18:09.072Z,7.14
2019-03-28T03:20:41.040Z,7.18
2019-03-28T03:23:11.999Z,7.23
2019-03-28T03:25:42.444Z,7.25
2019-03-28T03:28:14.834Z,7.25
2019-03-28T03:30:45.258Z,7.20
2019-03-28T03:33:14.610Z,7.21
2019-03-28T03:35:44.968Z,7.24
2019-03-28T03:38:18.651Z,7.25
2019-03-28T03:40:48.154Z,7.18
2019-03-28T03:43:18.622Z,7.23
2019-03-28T03:45:49.185Z,7.18
2019-03-28T03:48:19.664Z,7.21
2019-03-28T03:50:50.122Z,7.16
2019-03-28T03:53:19.650Z,7.14
2019-03-28T03:55:48.117Z,7.10
2019-03-28T03:58:18.624Z,7.05
2019-03-28T04:00:50.244Z,7.06
2019-03-28T04:03:20.738Z,7.11
2019-03-28T04:05:51.094Z,7.07
2019-03-28T04:08:21.422Z,6.99
2019-03-28T04:10:50.860Z,6.88
2019-03-28T04:13:21.134Z,6.83
2019-03-28T04:15:50.817Z,6.84
2019-03-28T04:18:22.249Z,6.91
2019-03-28T04:20:54.194Z,6.89
2019-03-28T04:23:24.628Z,6.77
2019-03-28T04:25:55.323Z,6.86
2019-03-28T04:28:31.830Z,6.94
2019-03-28T04:30:56.817Z,6.90
2019-03-28T04:33:27.358Z,6.88
2019-03-28T04:35:56.822Z,6.80
2019-03-28T04:38:26.224Z,6.89
2019-03-28T04:40:58.682Z,6.91
2019-03-28T04:43:28.104Z,6.86
2019-03-28T04:45:57.633Z,6.97
2019-03-28T04:48:28.033Z,7.00
2019-03-28T04:50:58.421Z,6.95
2019-03-28T04:53:29.590Z,6.86
2019-03-28T04:55:58.972Z,6.96
2019-03-28T04:58:29.534Z,6.93
2019-03-28T05:00:59.462Z,6.89
2019-03-28T05:03:33.478Z,6.99
2019-03-28T05:06:03.999Z,6.99
2019-03-28T05:08:34.712Z,6.98
2019-03-28T05:11:05.243Z,6.96
2019-03-28T05:13:34.591Z,6.94
2019-03-28T05:16:04.831Z,6.98
2019-03-28T05:18:36.653Z,6.85
2019-03-28T05:21:06.338Z,6.88
2019-03-28T05:23:35.830Z,6.81
2019-03-28T05:26:06.294Z,7.01
2019-03-28T05:28:35.758Z,6.93
2019-03-28T05:31:05.139Z,6.84
2019-03-28T05:33:34.606Z,6.96
2019-03-28T05:36:06.096Z,7.31
2019-03-28T05:38:36.460Z,7.19
2019-03-28T05:41:05.841Z,7.13
2019-03-28T05:43:36.528Z,7.26
2019-03-28T05:46:06.932Z,7.40
2019-03-28T05:48:37.329Z,7.58
2019-03-28T05:51:09.719Z,7.76
2019-03-28T05:53:39.126Z,7.85
2019-03-28T05:56:09.592Z,8.12
2019-03-28T05:58:43.443Z,8.48
2019-03-28T06:01:12.842Z,8.44
2019-03-28T06:03:43.209Z,8.28
2019-03-28T06:06:13.711Z,8.23
2019-03-28T06:08:43.124Z,8.39
2019-03-28T06:11:13.517Z,8.46
2019-03-28T06:13:43.936Z,8.72
2019-03-28T06:16:14.989Z,8.82
2019-03-28T06:18:46.334Z,9.05
2019-03-28T06:21:15.735Z,9.41
2019-03-28T06:23:47.150Z,9.89
2019-03-28T06:26:16.553Z,10.90
2019-03-28T06:28:45.947Z,14.02
2019-03-28T06:31:16.238Z,20.29
2019-03-28T06:33:45.692Z,20.94
2019-03-28T06:36:16.078Z,16.44
2019-03-28T06:38:46.493Z,19.89
2019-03-28T06:41:16.900Z,23.35
2019-03-28T06:43:47.296Z,24.73
2019-03-28T06:46:16.804Z,25.39
2019-03-28T06:48:47.155Z,26.50
2019-03-28T06:51:16.540Z,26.58
2019-03-28T06:53:48.508Z,27.51
2019-03-28T06:56:18.020Z,24.10
2019-03-28T06:58:48.509Z,20.84
2019-03-28T07:01:17.887Z,19.22
2019-03-28T07:03:50.027Z,20.09
2019-03-28T07:06:21.361Z,17.78
2019-03-28T07:08:51.292Z,15.85
2019-03-28T07:11:20.650Z,14.98
2019-03-28T07:13:50.641Z,13.66
2019-03-28T07:16:22.311Z,13.65
2019-03-28T07:18:51.660Z,13.78
2019-03-28T07:21:23.125Z,13.22
2019-03-28T07:23:53.391Z,12.41
2019-03-28T07:26:22.775Z,11.89
2019-03-28T07:28:54.361Z,11.66
2019-03-28T07:31:23.994Z,12.16
2019-03-28T07:33:54.482Z,12.51
2019-03-28T07:36:23.877Z,12.80
2019-03-28T07:38:54.337Z,13.30
2019-03-28T07:41:25.228Z,13.27
2019-03-28T07:43:55.625Z,13.80
2019-03-28T07:46:26.076Z,14.34
2019-03-28T07:48:56.491Z,14.42
2019-03-28T07:51:30.334Z,14.31
2019-03-28T07:53:59.703Z,14.47
2019-03-28T07:56:30.113Z,15.14
2019-03-28T07:59:01.906Z,16.04
2019-03-28T08:01:32.601Z,16.36
2019-03-28T08:04:02.967Z,16.12
2019-03-28T08:06:33.402Z,16.72
2019-03-28T08:09:03.795Z,16.98
2019-03-28T08:11:34.318Z,16.31
2019-03-28T08:14:04.709Z,16.36
2019-03-28T08:16:34.189Z,17.72
2019-03-28T08:19:03.584Z,17.55
2019-03-28T08:21:34.068Z,18.58
2019-03-28T08:24:04.368Z,19.30
2019-03-28T08:26:36.741Z,19.16
2019-03-28T08:29:06.355Z,19.24
2019-03-28T08:31:40.578Z,18.88
2019-03-28T08:34:08.649Z,18.68
2019-03-28T08:36:39.984Z,18.68
2019-03-28T08:39:10.342Z,18.67
2019-03-28T08:41:39.745Z,18.16
2019-03-28T08:44:10.735Z,19.11
2019-03-28T08:46:41.262Z,19.89
2019-03-28T08:49:11.597Z,19.38
2019-03-28T08:51:41.905Z,20.19
2019-03-28T08:54:11.319Z,19.81
2019-03-28T08:56:41.685Z,19.53
2019-03-28T08:59:11.125Z,20.67
2019-03-28T09:01:43.361Z,21.51
2019-03-28T09:04:14.995Z,21.54
2019-03-28T09:06:45.230Z,20.24
2019-03-28T09:09:15.728Z,19.19
2019-03-28T09:11:47.133Z,18.31
2019-03-28T09:14:17.599Z,18.16
2019-03-28T09:16:48.002Z,18.39
2019-03-28T09:19:20.377Z,17.65
2019-03-28T09:21:49.757Z,18.35
2019-03-28T09:24:19.217Z,18.64
2019-03-28T09:26:51.591Z,18.92
2019-03-28T09:29:22.578Z,18.85
2019-03-28T09:31:55.120Z,19.12
2019-03-28T09:34:25.524Z,18.71
2019-03-28T09:36:55.886Z,18.71
2019-03-28T09:39:26.444Z,19.45
2019-03-28T09:41:58.188Z,18.21
2019-03-28T09:44:28.558Z,17.90
2019-03-28T09:46:58.917Z,18.81
2019-03-28T09:49:29.536Z,17.89
2019-03-28T09:51:59.941Z,17.81
2019-03-28T09:54:30.219Z,17.71
2019-03-28T09:57:00.594Z,17.68
2019-03-28T09:59:31.046Z,18.28
2019-03-28T10:02:01.407Z,18.30
2019-03-28T10:04:32.301Z,19.05
2019-03-28T10:07:03.716Z,18.91
2019-03-28T10:09:34.389Z,18.91
2019-03-28T10:12:03.843Z,17.92
2019-03-28T10:14:34.210Z,18.29
2019-03-28T10:17:03.621Z,18.61
2019-03-28T10:19:34.029Z,18.67
2019-03-28T10:22:04.383Z,18.44
2019-03-28T10:24:33.899Z,18.03
2019-03-28T10:27:04.257Z,18.11
2019-03-28T10:29:33.088Z,18.23
2019-03-28T10:32:02.570Z,17.93
2019-03-28T10:34:33.203Z,18.01
2019-03-28T10:37:02.654Z,18.09
2019-03-28T10:39:33.041Z,18.49
2019-03-28T10:42:05.430Z,18.02
2019-03-28T10:44:39.334Z,18.32
2019-03-28T10:47:07.892Z,18.44
2019-03-28T10:49:36.421Z,17.43
2019-03-28T10:52:04.972Z,17.67
2019-03-28T10:54:34.551Z,17.95
2019-03-28T10:57:13.065Z,18.12
2019-03-28T10:59:35.149Z,17.66
2019-03-28T11:02:04.970Z,17.71
2019-03-28T11:04:37.132Z,17.21
2019-03-28T11:07:06.667Z,16.98
2019-03-28T11:09:39.158Z,17.49
2019-03-28T11:12:08.520Z,16.86
2019-03-28T11:14:40.295Z,17.12
2019-03-28T11:17:09.687Z,17.02
2019-03-28T11:19:42.035Z,17.16
2019-03-28T11:22:11.403Z,17.18
2019-03-28T11:24:41.768Z,17.23
2019-03-28T11:27:12.113Z,16.70
2019-03-28T11:29:41.608Z,16.61
2019-03-28T11:32:11.963Z,16.12
2019-03-28T11:34:41.504Z,16.17
2019-03-28T11:37:25.345Z,16.38
2019-03-28T11:39:47.994Z,16.35
2019-03-28T11:42:17.365Z,15.54
2019-03-28T11:44:46.866Z,15.47
2019-03-28T11:47:16.305Z,15.99
2019-03-28T11:49:46.691Z,16.40
2019-03-28T11:52:16.178Z,16.71
2019-03-28T11:54:47.763Z,17.03
2019-03-28T11:57:20.104Z,17.12
2019-03-28T11:59:48.995Z,16.70
2019-03-28T12:02:20.109Z,16.03
2019-03-28T12:04:48.915Z,15.50
2019-03-28T12:07:19.353Z,15.88
2019-03-28T12:09:51.275Z,15.69
2019-03-28T12:12:21.711Z,15.69
2019-03-28T12:14:52.016Z,15.59
2019-03-28T12:17:21.459Z,15.30
2019-03-28T12:19:50.873Z,15.79
2019-03-28T12:22:20.317Z,15.56
2019-03-28T12:24:50.698Z,15.81
2019-03-28T12:27:23.193Z,15.80
2019-03-28T12:29:55.068Z,15.38
2019-03-28T12:32:25.466Z,15.20
2019-03-28T12:34:55.990Z,15.29
2019-03-28T12:37:27.374Z,15.17
2019-03-28T12:39:59.981Z,14.70
2019-03-28T12:42:29.897Z,14.62
2019-03-28T12:44:59.066Z,15.15
2019-03-28T12:47:41.672Z,15.53
2019-03-28T12:50:01.837Z,15.27
2019-03-28T12:52:31.294Z,15.09
2019-03-28T12:55:02.782Z,15.29
2019-03-28T12:57:36.313Z,15.33
2019-03-28T13:00:14.416Z,15.16
2019-03-28T13:02:45.085Z,15.35
2019-03-28T13:05:14.673Z,15.41
2019-03-28T13:07:44.942Z,15.22
2019-03-28T13:10:15.865Z,15.06
2019-03-28T13:12:45.229Z,14.85
2019-03-28T13:15:18.563Z,14.76
2019-03-28T13:17:50.939Z,14.50
2019-03-28T13:20:22.349Z,14.32
2019-03-28T13:22:56.038Z,14.69
2019-03-28T13:25:26.451Z,14.48
2019-03-28T13:27:56.813Z,14.39
2019-03-28T13:30:26.356Z,14.35
2019-03-28T13:32:55.715Z,14.06
2019-03-28T13:35:26.061Z,14.51
2019-03-28T13:37:56.489Z,14.42
2019-03-28T13:40:26.279Z,14.73
2019-03-28T13:42:56.877Z,14.75
2019-03-28T13:45:26.388Z,14.99
2019-03-28T13:47:56.512Z,14.61
2019-03-28T13:50:26.231Z,14.57
2019-03-28T13:52:57.905Z,14.57
2019-03-28T13:55:28.385Z,13.97
2019-03-28T13:57:59.098Z,14.28
2019-03-28T14:00:34.007Z,14.54
2019-03-28T14:03:04.463Z,14.65
2019-03-28T14:05:33.778Z,14.72
2019-03-28T14:08:03.247Z,14.74
2019-03-28T14:10:35.212Z,14.62
2019-03-28T14:13:05.711Z,14.57
2019-03-28T14:15:36.073Z,14.38
2019-03-28T14:18:06.604Z,14.64
2019-03-28T14:20:37.040Z,14.58
2019-03-28T14:23:09.108Z,14.30
2019-03-28T14:25:38.621Z,13.97
2019-03-28T14:28:07.142Z,14.06
2019-03-28T14:30:35.628Z,14.34
2019-03-28T14:33:11.641Z,14.44
2019-03-28T14:35:39.408Z,14.45
2019-03-28T14:38:09.887Z,14.65
2019-03-28T14:40:40.283Z,14.52
2019-03-28T14:43:10.853Z,14.31
2019-03-28T14:45:41.302Z,14.40
2019-03-28T14:48:11.701Z,14.24
2019-03-28T14:50:41.374Z,14.33
2019-03-28T14:53:15.969Z,14.20
2019-03-28T14:55:46.678Z,14.29
2019-03-28T14:58:17.187Z,14.48
2019-03-28T15:00:51.774Z,14.77
2019-03-28T15:03:27.275Z,14.59
2019-03-28T15:05:58.600Z,14.62
2019-03-28T15:08:28.128Z,14.71
2019-03-28T15:10:58.736Z,14.80
2019-03-28T15:13:28.237Z,14.44
2019-03-28T15:15:58.746Z,14.39
2019-03-28T15:18:31.192Z,14.38
2019-03-28T15:21:01.552Z,14.17
2019-03-28T15:23:32.009Z,14.00
2019-03-28T15:26:02.358Z,13.88
2019-03-28T15:28:34.275Z,13.78
2019-03-28T15:31:04.678Z,13.64
2019-03-28T15:33:39.691Z,13.65
2019-03-28T15:36:06.565Z,13.58
2019-03-28T15:38:39.855Z,13.52
2019-03-28T15:41:10.223Z,13.57
2019-03-28T15:43:42.230Z,13.55
2019-03-28T15:46:11.839Z,13.60
2019-03-28T15:48:45.201Z,13.58
2019-03-28T15:51:16.909Z,13.33
2019-03-28T15:53:49.629Z,13.22
2019-03-28T15:56:19.132Z,13.04
2019-03-28T15:58:49.480Z,12.87
2019-03-28T16:01:18.964Z,12.86
2019-03-28T16:03:53.281Z,12.96
2019-03-28T16:06:22.503Z,12.94
2019-03-28T16:08:54.861Z,12.95
2019-03-28T16:11:25.278Z,12.78
2019-03-28T16:13:57.658Z,12.70
2019-03-28T16:16:28.369Z,12.71
2019-03-28T16:18:57.854Z,12.76
2019-03-28T16:21:28.252Z,12.65
2019-03-28T16:23:58.705Z,12.69
2019-03-28T16:26:29.007Z,12.70
2019-03-28T16:29:00.589Z,12.58
2019-03-28T16:31:30.988Z,12.62
2019-03-28T16:34:07.301Z,12.66
2019-03-28T16:36:36.571Z,12.72
2019-03-28T16:39:07.021Z,12.68
2019-03-28T16:41:38.866Z,12.72
2019-03-28T16:44:11.306Z,12.63
2019-03-28T16:46:43.587Z,12.61
2019-03-28T16:49:14.430Z,12.60
2019-03-28T16:51:46.904Z,12.65
2019-03-28T16:54:18.321Z,12.59
2019-03-28T16:56:48.787Z,12.58
2019-03-28T16:59:20.175Z,12.62
2019-03-28T17:01:50.624Z,12.64
2019-03-28T17:04:22.939Z,12.60
2019-03-28T17:06:54.925Z,12.56
2019-03-28T17:09:25.386Z,12.53
2019-03-28T17:11:54.894Z,12.53
2019-03-28T17:14:26.266Z,12.44
2019-03-28T17:16:57.266Z,12.31
2019-03-28T17:19:26.709Z,12.31
2019-03-28T17:21:58.384Z,12.26
2019-03-28T17:24:28.112Z,12.25
2019-03-28T17:26:58.672Z,12.29
2019-03-28T17:29:28.107Z,12.21
2019-03-28T17:31:58.625Z,12.25
2019-03-28T17:34:34.704Z,12.24
2019-03-28T17:37:00.532Z,12.30
2019-03-28T17:39:30.962Z,12.28
2019-03-28T17:42:01.518Z,12.26
2019-03-28T17:44:31.010Z,12.27
2019-03-28T17:47:01.464Z,12.17
2019-03-28T17:49:30.827Z,12.14
2019-03-28T17:52:01.769Z,12.20
2019-03-28T17:54:33.490Z,12.19
2019-03-28T17:57:02.925Z,12.18
2019-03-28T17:59:32.285Z,12.13
2019-03-28T18:02:01.809Z,12.19
2019-03-28T18:04:32.642Z,12.17
2019-03-28T18:07:01.866Z,12.13
2019-03-28T18:09:32.238Z,12.14
2019-03-28T18:12:02.872Z,12.15
2019-03-28T18:14:33.632Z,12.13
2019-03-28T18:17:03.041Z,12.10
2019-03-28T18:19:33.497Z,12.16
2019-03-28T18:22:04.082Z,12.15
2019-03-28T18:24:33.702Z,12.13
2019-03-28T18:27:03.088Z,12.11
2019-03-28T18:29:35.912Z,12.04
2019-03-28T18:32:05.630Z,12.03
2019-03-28T18:34:35.033Z,11.89
2019-03-28T18:37:07.391Z,11.98
2019-03-28T18:39:37.790Z,11.96
2019-03-28T18:42:07.305Z,11.94
2019-03-28T18:44:36.837Z,11.90
2019-03-28T18:47:07.238Z,11.87
2019-03-28T18:49:36.707Z,11.78
2019-03-28T18:52:07.590Z,11.79
2019-03-28T18:54:36.991Z,11.77
2019-03-28T18:57:06.607Z,11.83
2019-03-28T18:59:39.047Z,11.77
2019-03-28T19:02:11.436Z,11.85
2019-03-28T19:04:40.836Z,11.66
2019-03-28T19:07:11.206Z,11.67
2019-03-28T19:09:40.683Z,11.68
2019-03-28T19:12:11.023Z,11.56
2019-03-28T19:14:46.054Z,11.47
2019-03-28T19:17:15.451Z,11.57
2019-03-28T19:19:45.951Z,11.62
2019-03-28T19:22:16.457Z,11.67
2019-03-28T19:24:46.877Z,11.71
2019-03-28T19:27:18.051Z,11.76
2019-03-28T19:29:52.374Z,11.75
2019-03-28T19:32:22.930Z,11.81
2019-03-28T19:34:53.869Z,11.78
2019-03-28T19:37:24.959Z,11.71
2019-03-28T19:39:56.399Z,11.65
2019-03-28T19:42:26.803Z,11.68
2019-03-28T19:44:59.721Z,11.55
2019-03-28T19:47:30.453Z,11.61
2019-03-28T19:50:01.586Z,11.65
2019-03-28T19:52:30.987Z,11.61
2019-03-28T19:55:00.452Z,11.55
2019-03-28T19:57:31.018Z,11.54
2019-03-28T20:00:04.040Z,11.49
2019-03-28T20:02:35.209Z,11.43
2019-03-28T20:05:04.764Z,11.43
2019-03-28T20:07:34.145Z,11.50
2019-03-28T20:10:16.325Z,11.59
2019-03-28T20:12:45.247Z,11.58
2019-03-28T20:15:16.185Z,11.59
2019-03-28T20:17:47.934Z,11.56
2019-03-28T20:20:21.598Z,11.51
2019-03-28T20:22:51.981Z,11.46
2019-03-28T20:25:21.368Z,11.41
2019-03-28T20:27:54.785Z,11.35
2019-03-28T20:30:25.548Z,11.35
2019-03-28T20:32:57.896Z,11.35
2019-03-28T20:35:28.279Z,11.30
2019-03-28T20:37:58.828Z,11.31
2019-03-28T20:40:31.201Z,11.35
2019-03-28T20:43:00.951Z,11.35
2019-03-28T20:45:31.422Z,11.28
2019-03-28T20:48:03.250Z,11.35
2019-03-28T20:50:33.750Z,11.40
2019-03-28T20:53:04.375Z,11.26
2019-03-28T20:55:34.741Z,11.09
2019-03-28T20:58:05.236Z,11.01
2019-03-28T21:00:40.627Z,10.94
2019-03-28T21:03:10.986Z,10.98
2019-03-28T21:05:41.834Z,11.01
2019-03-28T21:08:12.147Z,11.10
2019-03-28T21:10:41.546Z,11.07
2019-03-28T21:13:11.910Z,11.04
2019-03-28T21:15:42.427Z,10.92
2019-03-28T21:18:11.818Z,10.93
2019-03-28T21:20:42.188Z,11.05
2019-03-28T21:23:12.260Z,10.98
2019-03-28T21:25:43.516Z,10.96
2019-03-28T21:28:15.527Z,10.96
2019-03-28T21:30:48.038Z,10.99
2019-03-28T21:33:19.020Z,11.02
2019-03-28T21:35:48.379Z,11.01
2019-03-28T21:38:18.761Z,10.93
2019-03-28T21:40:49.198Z,10.95
2019-03-28T21:43:19.589Z,10.88
2019-03-28T21:45:49.764Z,10.80
2019-03-28T21:48:21.063Z,10.83
2019-03-28T21:50:50.492Z,10.82
2019-03-28T21:53:21.000Z,10.76
2019-03-28T21:55:55.384Z,10.81
2019-03-28T21:58:24.140Z,10.81
2019-03-28T22:00:53.688Z,10.80
2019-03-28T22:03:26.488Z,10.91
2019-03-28T22:05:57.068Z,10.87
2019-03-28T22:08:30.956Z,10.88
2019-03-28T22:11:00.435Z,10.82
2019-03-28T22:13:30.797Z,10.72
2019-03-28T22:16:01.361Z,10.72
2019-03-28T22:18:32.281Z,10.80
2019-03-28T22:21:02.645Z,10.80
2019-03-28T22:23:33.107Z,10.75
2019-03-28T22:26:02.441Z,10.68
2019-03-28T22:28:32.844Z,10.66
2019-03-28T22:31:02.200Z,10.55
2019-03-28T22:33:32.594Z,10.48
2019-03-28T22:36:02.014Z,10.47
2019-03-28T22:38:32.359Z,10.49
2019-03-28T22:41:04.086Z,10.40
2019-03-28T22:43:34.438Z,10.36
2019-03-28T22:46:04.819Z,10.23
2019-03-28T22:48:35.262Z,10.27
2019-03-28T22:51:05.693Z,10.23
2019-03-28T22:53:36.624Z,10.24
2019-03-28T22:56:07.025Z,10.26
2019-03-28T22:58:36.580Z,10.40
2019-03-28T23:01:07.075Z,10.38
2019-03-28T23:03:36.473Z,10.47
2019-03-28T23:06:06.948Z,10.43
2019-03-28T23:08:38.886Z,10.41
2019-03-28T23:11:08.286Z,10.39
2019-03-28T23:13:38.794Z,10.46
2019-03-28T23:16:09.234Z,10.47
2019-03-28T23:18:39.833Z,10.50
2019-03-28T23:21:10.483Z,10.42
2019-03-28T23:23:40.822Z,10.37
2019-03-28T23:26:11.236Z,10.48
2019-03-28T23:28:41.584Z,10.49
2019-03-28T23:31:11.951Z,10.40
2019-03-28T23:33:41.356Z,10.36
2019-03-28T23:36:11.809Z,10.26
2019-03-28T23:38:42.132Z,10.16
2019-03-28T23:41:12.516Z,10.23
2019-03-28T23:43:42.964Z,10.32
2019-03-28T23:46:12.332Z,10.38
2019-03-28T23:48:42.639Z,10.41
2019-03-28T23:51:13.007Z,10.45
2019-03-28T23:53:42.399Z,10.35
2019-03-28T23:56:12.875Z,10.32
2019-03-28T23:58:41.632Z,10.33
